Time;durP1;ratioP1;P1;durP2;ratioP2;P2;SDS_P1;SDS_P2;PMS_P1;PMS_P2;Temp;Humidity;BMP_temperature;BMP_pressure;BME280_temperature;BME280_humidity;BME280_pressure;Samples;Min_cycle;Max_cycle;Signal;HPM_P1;HPM_P2
2022/04/08 03:46:46;;;;;;;7.20;4.60;;;;;;;13.58;61.69;98950.38;5606319;31;79928;-57
2022/04/08 03:49:49;;;;;;;4.85;3.20;;;;;;;13.58;61.69;98950.38;5583835;32;33489;-57
2022/04/08 03:52:51;;;;;;;4.90;2.50;;;;;;;13.15;61.86;98958.88;5583651;31;34263;-57
2022/04/08 03:55:53;;;;;;;3.10;1.83;;;;;;;13.32;60.76;98968.72;5583737;31;34234;-57
2022/04/08 03:58:55;;;;;;;2.42;1.35;;;;;;;13.51;61.71;98969.00;5583606;31;34197;-57
2022/04/08 04:01:58;;;;;;;1.48;0.82;;;;;;;13.56;61.58;98984.12;5583714;31;33641;-56
2022/04/08 04:05:00;;;;;;;3.72;1.02;;;;;;;13.57;61.86;98981.09;5583648;31;34279;-57
2022/04/08 04:08:03;;;;;;;6.12;0.80;;;;;;;13.67;62.29;98971.03;5583682;31;33688;-57
2022/04/08 04:11:05;;;;;;;2.75;0.88;;;;;;;13.76;59.36;98960.94;5583397;32;33433;-57
2022/04/08 04:14:07;;;;;;;2.55;0.70;;;;;;;13.75;57.99;98976.31;5583649;32;34354;-57
2022/04/08 04:17:10;;;;;;;1.27;0.70;;;;;;;13.81;57.18;98968.81;5583371;31;33633;-57
2022/04/08 04:20:12;;;;;;;2.90;0.73;;;;;;;13.71;56.12;98985.38;5583409;31;33621;-57
2022/04/08 04:23:15;;;;;;;1.95;1.00;;;;;;;13.64;54.94;98975.16;5583305;32;33759;-57
2022/04/08 04:26:17;;;;;;;1.20;0.60;;;;;;;13.64;58.06;98969.78;5582818;31;33731;-57
2022/04/08 04:29:19;;;;;;;2.58;0.80;;;;;;;13.75;54.73;98975.53;5563464;32;33559;-57
2022/04/08 04:32:21;;;;;;;1.90;1.00;;;;;;;13.71;53.18;99001.53;5563754;32;34219;-57
2022/04/08 04:35:23;;;;;;;3.50;0.80;;;;;;;13.69;51.98;98976.88;5581335;31;34360;-57
2022/04/08 04:38:26;;;;;;;1.65;0.70;;;;;;;13.72;48.44;98976.19;5583038;31;34332;-57
2022/04/08 04:41:28;;;;;;;4.10;0.80;;;;;;;13.77;48.51;98968.66;5583242;32;33720;-57
2022/04/08 04:44:31;;;;;;;4.60;0.95;;;;;;;13.71;47.83;98964.66;5582381;32;35240;-57
2022/04/08 04:47:33;;;;;;;4.65;1.20;;;;;;;13.71;47.07;98978.13;5580171;32;33629;-57
2022/04/08 04:50:36;;;;;;;3.92;0.60;;;;;;;13.67;47.24;98968.31;5578929;31;33366;-57
2022/04/08 04:53:38;;;;;;;6.97;0.93;;;;;;;13.65;46.81;98971.37;5578737;31;34347;-57
2022/04/08 04:56:40;;;;;;;4.70;0.90;;;;;;;13.62;45.82;98980.91;5565721;32;33987;-57
2022/04/08 04:59:43;;;;;;;9.13;1.48;;;;;;;13.55;45.73;98982.56;5555723;32;33250;-57
2022/04/08 05:02:46;;;;;;;4.55;1.02;;;;;;;13.61;45.79;98992.78;5564525;32;32884;-57
2022/04/08 05:05:48;;;;;;;2.75;0.62;;;;;;;13.66;45.23;98994.47;5568571;32;34286;-57
2022/04/08 05:08:50;;;;;;;5.20;1.05;;;;;;;13.48;44.67;98991.19;5569428;32;33776;-56
2022/04/08 05:11:53;;;;;;;4.70;0.98;;;;;;;13.39;45.61;99002.03;5568927;32;34393;-57
2022/04/08 05:14:55;;;;;;;3.30;0.88;;;;;;;13.31;45.38;98996.72;5568943;32;33890;-57
2022/04/08 05:17:58;;;;;;;2.25;0.80;;;;;;;13.44;44.25;98995.66;5568250;32;33740;-57
2022/04/08 05:21:00;;;;;;;4.22;1.12;;;;;;;13.39;42.77;98996.66;5568758;32;34314;-57
2022/04/08 05:24:02;;;;;;;2.42;1.23;;;;;;;13.42;43.94;98992.53;5557682;32;33602;-56
2022/04/08 05:27:06;;;;;;;3.28;1.02;;;;;;;13.39;44.96;98998.56;5551913;32;33734;-56
2022/04/08 05:30:12;;;;;;;3.05;0.90;;;;;;;13.34;43.50;99012.22;5564683;32;34675;-57
2022/04/08 05:33:15;;;;;;;6.60;1.20;;;;;;;13.37;43.28;99004.25;5565666;32;34267;-57
2022/04/08 05:36:18;;;;;;;2.08;0.70;;;;;;;13.34;42.26;99017.59;5568097;32;33695;-57
2022/04/08 05:39:20;;;;;;;4.62;0.90;;;;;;;13.32;42.27;99036.00;5567286;32;33656;-57
2022/04/08 05:42:23;;;;;;;5.97;1.00;;;;;;;13.29;43.96;99021.31;5568333;32;34490;-56
2022/04/08 05:45:25;;;;;;;2.42;0.98;;;;;;;13.34;42.56;99025.69;5569224;32;33752;-56
2022/04/08 05:48:27;;;;;;;3.53;1.00;;;;;;;13.33;40.60;99027.59;5565958;32;33721;-57
2022/04/08 05:51:34;;;;;;;1.52;0.82;;;;;;;13.23;41.81;99032.56;5563731;32;33547;-56
2022/04/08 05:54:42;;;;;;;4.68;1.02;;;;;;;13.02;46.07;99041.44;5567646;32;33227;-57
2022/04/08 05:57:46;;;;;;;4.28;1.00;;;;;;;13.02;43.10;99041.44;5568880;32;33673;-57
2022/04/08 06:00:53;;;;;;;4.80;0.85;;;;;;;13.10;42.01;99059.41;5568962;32;34734;-56
2022/04/08 06:03:58;;;;;;;9.10;1.17;;;;;;;13.02;41.22;99065.66;5567950;32;34987;-56
2022/04/08 06:07:00;;;;;;;2.92;1.10;;;;;;;13.03;41.02;99079.91;5567928;32;33838;-57
2022/04/08 06:10:03;;;;;;;3.47;1.00;;;;;;;13.15;40.66;99085.34;5566745;32;33549;-56
2022/04/08 06:13:05;;;;;;;4.00;1.30;;;;;;;13.24;40.01;99090.66;5567891;32;33752;-57
2022/04/08 06:16:08;;;;;;;5.82;1.20;;;;;;;13.21;41.27;99099.38;5559175;32;34438;-57
2022/04/08 06:19:11;;;;;;;2.45;0.88;;;;;;;13.11;42.76;99135.53;5568170;32;33309;-57
2022/04/08 06:22:13;;;;;;;1.50;0.82;;;;;;;13.11;39.29;99130.97;5568662;32;34411;-57
2022/04/08 06:25:18;;;;;;;3.78;0.90;;;;;;;13.21;39.75;99143.25;5567723;32;33737;-57
2022/04/08 06:28:20;;;;;;;2.40;1.20;;;;;;;13.29;40.47;99138.94;5568250;32;34349;-57
2022/04/08 06:31:29;;;;;;;5.05;1.30;;;;;;;13.35;41.66;99137.63;5568557;32;33882;-57
2022/04/08 06:34:32;;;;;;;3.07;1.23;;;;;;;13.38;40.33;99156.59;5567119;32;34313;-57
2022/04/08 06:37:35;;;;;;;2.75;1.02;;;;;;;13.38;39.58;99153.91;5564717;32;34466;-57
2022/04/08 06:40:41;;;;;;;3.83;1.05;;;;;;;13.37;40.72;99160.38;5563434;32;34258;-57
2022/04/08 06:43:43;;;;;;;6.05;1.10;;;;;;;13.34;41.16;99153.00;5562036;32;33736;-57
2022/04/08 06:46:45;;;;;;;4.70;1.33;;;;;;;13.40;41.14;99154.34;5564079;32;34244;-57
2022/04/08 06:49:48;;;;;;;3.95;1.12;;;;;;;13.58;42.23;99141.56;5565424;32;33707;-57
2022/04/08 06:52:50;;;;;;;5.95;1.40;;;;;;;13.59;39.62;99161.19;5567356;32;34097;-57
2022/04/08 06:55:52;;;;;;;4.80;1.00;;;;;;;13.51;39.41;99168.22;5568211;32;33608;-57
2022/04/08 06:58:55;;;;;;;6.68;2.03;;;;;;;13.64;39.37;99155.56;5566923;32;33872;-57
2022/04/08 07:01:57;;;;;;;3.60;1.27;;;;;;;13.66;39.13;99180.28;5567067;32;34282;-57
2022/04/08 07:04:59;;;;;;;5.20;1.75;;;;;;;13.60;39.46;99165.44;5567130;32;33618;-57
2022/04/08 07:08:02;;;;;;;2.60;1.12;;;;;;;13.63;38.83;99184.41;5568412;32;33686;-57
2022/04/08 07:11:04;;;;;;;4.20;1.37;;;;;;;13.76;40.33;99176.41;5567492;32;33359;-57
2022/04/08 07:14:07;;;;;;;5.47;1.27;;;;;;;13.72;39.73;99176.28;5568227;32;33572;-57
2022/04/08 07:17:09;;;;;;;5.53;1.20;;;;;;;13.83;39.48;99179.34;5568374;32;33563;-57
2022/04/08 07:20:23;;;;;;;4.47;1.20;;;;;;;13.78;38.57;99201.91;5563981;32;33573;-57
2022/04/08 07:23:26;;;;;;;5.45;1.05;;;;;;;13.81;37.88;99192.37;5550733;32;33660;-56
2022/04/08 07:26:28;;;;;;;4.37;1.12;;;;;;;13.91;38.23;99228.88;5550614;32;34251;-57
2022/04/08 07:29:30;;;;;;;3.85;1.08;;;;;;;13.89;37.17;99215.75;5567450;32;34318;-57
2022/04/08 07:32:32;;;;;;;4.78;1.33;;;;;;;13.83;37.20;99204.38;5567211;32;34295;-57
2022/04/08 07:35:37;;;;;;;4.75;1.00;;;;;;;13.96;37.36;99213.31;5559517;32;33673;-57
2022/04/08 07:38:42;;;;;;;4.80;1.02;;;;;;;14.02;38.03;99221.97;5567492;32;34282;-57
2022/04/08 07:41:45;;;;;;;4.75;1.30;;;;;;;14.06;37.15;99212.88;5566575;32;33702;-57
2022/04/08 07:44:47;;;;;;;3.22;1.02;;;;;;;14.13;36.83;99219.66;5565843;32;33596;-57
2022/04/08 07:47:49;;;;;;;6.60;1.00;;;;;;;14.18;39.60;99209.47;5567492;32;33551;-57
2022/04/08 07:50:51;;;;;;;3.12;0.88;;;;;;;14.23;36.48;99221.94;5566906;32;33593;-57
2022/04/08 07:53:54;;;;;;;2.78;0.80;;;;;;;14.29;35.11;99242.16;5567490;32;33709;-56
2022/04/08 07:56:56;;;;;;;2.65;1.08;;;;;;;14.41;33.57;99230.66;5558352;32;33843;-57
2022/04/08 07:59:58;;;;;;;2.30;0.90;;;;;;;14.48;33.97;99217.41;5561514;32;33178;-57
2022/04/08 08:03:00;;;;;;;2.95;1.40;;;;;;;14.52;33.88;99229.13;5567751;32;33673;-57
2022/04/08 08:06:03;;;;;;;2.20;0.90;;;;;;;14.61;31.72;99224.41;5567883;32;33605;-57
2022/04/08 08:09:05;;;;;;;1.35;0.75;;;;;;;14.61;31.28;99205.53;5566504;32;34414;-56
2022/04/08 08:12:09;;;;;;;1.48;0.85;;;;;;;14.54;30.51;99214.19;5566222;32;33551;-57
2022/04/08 08:15:12;;;;;;;2.37;0.90;;;;;;;14.55;30.72;99206.88;5563349;32;33914;-57
2022/04/08 08:18:14;;;;;;;5.43;0.93;;;;;;;14.62;31.47;99225.19;5562418;32;33574;-56
2022/04/08 08:21:16;;;;;;;2.75;0.90;;;;;;;14.59;31.31;99225.88;5552132;32;33737;-57
2022/04/08 08:24:18;;;;;;;1.75;0.90;;;;;;;14.54;30.41;99251.16;5557918;32;33900;-57
2022/04/08 08:27:21;;;;;;;1.75;0.90;;;;;;;14.71;37.56;99256.34;5565269;32;33750;-57
2022/04/08 08:30:24;;;;;;;3.20;1.00;;;;;;;14.81;30.58;99295.59;5563328;32;33741;-57
2022/04/08 08:33:26;;;;;;;3.30;1.05;;;;;;;14.70;29.62;99307.91;5566974;32;35329;-57
2022/04/08 08:36:29;;;;;;;6.10;0.80;;;;;;;14.83;31.46;99298.72;5565988;32;34329;-57
2022/04/08 08:39:33;;;;;;;8.95;1.15;;;;;;;14.99;33.86;99301.56;5568652;32;33682;-57
2022/04/08 08:42:36;;;;;;;4.68;1.00;;;;;;;14.84;31.79;99313.81;5569512;32;33570;-56
2022/04/08 08:45:40;;;;;;;3.87;1.10;;;;;;;14.73;31.82;99308.03;5566782;32;33669;-57
2022/04/08 08:48:45;;;;;;;3.85;0.80;;;;;;;14.70;31.87;99311.44;5565068;32;33719;-57
2022/04/08 08:51:58;;;;;;;2.05;0.75;;;;;;;14.59;33.15;99321.03;5567939;32;33434;-57
2022/04/08 08:55:04;;;;;;;3.17;1.12;;;;;;;14.70;31.54;99326.81;5567110;32;33211;-57
2022/04/08 08:58:08;;;;;;;3.42;0.90;;;;;;;14.68;31.83;99337.16;5566877;32;33629;-57
2022/04/08 09:01:11;;;;;;;13.10;1.30;;;;;;;14.71;31.83;99333.78;5568934;32;33765;-57
2022/04/08 09:04:13;;;;;;;2.90;0.88;;;;;;;14.82;32.90;99334.94;5566209;32;33362;-57
2022/04/08 09:07:27;;;;;;;5.37;0.90;;;;;;;14.80;31.84;99340.69;5568467;32;33677;-57
2022/04/08 09:10:33;;;;;;;4.95;0.85;;;;;;;14.92;34.68;99334.50;5565891;32;33718;-57
2022/04/08 09:13:43;;;;;;;;;;;;;;;15.03;30.90;99342.94;5565927;32;33600;-57
2022/04/08 09:16:46;;;;;;;2.55;1.08;;;;;;;15.04;30.75;99334.53;5567629;32;34082;-57
2022/04/08 09:19:51;;;;;;;1.00;0.90;;;;;;;15.03;31.08;99327.56;5565125;32;34102;-57
2022/04/08 09:22:55;;;;;;;2.00;0.80;;;;;;;15.17;31.03;99324.53;5567547;32;33672;-57
2022/04/08 09:26:00;;;;;;;3.80;0.90;;;;;;;15.25;30.79;99320.94;5567887;32;34404;-57
2022/04/08 09:29:04;;;;;;;1.90;0.70;;;;;;;15.27;31.17;99344.91;5563206;32;34338;-57
2022/04/08 09:32:11;;;;;;;2.00;0.77;;;;;;;15.19;30.83;99337.69;5567372;32;34293;-57
2022/04/08 09:35:20;;;;;;;2.17;0.57;;;;;;;15.33;30.55;99364.38;5566899;32;32456;-57
2022/04/08 09:38:27;;;;;;;0.93;0.70;;;;;;;15.40;30.13;99353.81;5564345;32;33020;-57
2022/04/08 09:41:40;;;;;;;4.15;1.40;;;;;;;15.61;30.07;99353.69;5567211;32;34298;-57
2022/04/08 09:44:42;;;;;;;4.43;1.20;;;;;;;15.80;29.67;99347.75;5568064;32;34286;-57
2022/04/08 09:47:44;;;;;;;2.85;0.80;;;;;;;15.97;29.77;99355.59;5568216;32;33349;-57
2022/04/08 09:50:50;;;;;;;1.90;0.70;;;;;;;16.15;29.84;99348.00;5566082;32;33414;-57
2022/04/08 09:54:04;;;;;;;2.22;0.80;;;;;;;16.12;29.71;99344.06;5568364;32;33636;-57
2022/04/08 09:57:16;;;;;;;2.33;0.70;;;;;;;16.15;29.74;99335.25;5568977;32;34940;-57
2022/04/08 10:00:18;;;;;;;1.87;0.93;;;;;;;16.00;29.58;99341.41;5567009;32;33702;-57
2022/04/08 10:03:20;;;;;;;4.20;0.82;;;;;;;15.95;29.92;99352.44;5569042;32;33781;-57
2022/04/08 10:06:24;;;;;;;3.60;1.52;;;;;;;15.93;30.17;99344.69;5560253;32;33742;-57
2022/04/08 10:09:33;;;;;;;2.45;0.80;;;;;;;15.85;30.53;99364.50;5549490;32;34301;-57
2022/04/08 10:13:00;;;;;;;2.78;1.00;;;;;;;15.79;30.52;99368.56;5565106;32;33256;-57
2022/04/08 10:16:13;;;;;;;2.42;1.25;;;;;;;15.82;32.04;99357.06;5551072;31;33518;-57
2022/04/08 10:19:16;;;;;;;2.45;1.00;;;;;;;15.91;34.18;99367.78;5567258;32;34158;-57
2022/04/08 10:22:20;;;;;;;2.30;0.70;;;;;;;16.01;30.66;99361.91;5567096;32;33814;-57
2022/04/08 10:25:26;;;;;;;3.08;0.90;;;;;;;16.08;30.58;99370.22;5563432;32;33683;-57
2022/04/08 10:28:36;;;;;;;;;;;;;;;16.19;30.01;99370.50;5568306;31;32171;-57
2022/04/08 10:31:38;;;;;;;1.50;1.00;;;;;;;16.27;29.55;99364.19;5563297;32;34040;-57
2022/04/08 10:34:40;;;;;;;1.90;0.98;;;;;;;16.23;30.26;99359.84;5568178;32;33671;-57
2022/04/08 10:37:54;;;;;;;2.83;0.90;;;;;;;16.37;28.97;99363.72;5568188;32;33731;-57
2022/04/08 10:41:02;;;;;;;3.22;0.75;;;;;;;16.42;29.29;99351.84;5554862;32;34449;-57
2022/04/08 10:44:04;;;;;;;4.05;0.90;;;;;;;16.38;29.40;99356.38;5568620;32;33753;-57
2022/04/08 10:47:11;;;;;;;3.67;1.58;;;;;;;16.39;29.11;99353.34;5568614;32;33674;-57
2022/04/08 10:50:24;;;;;;;2.92;0.90;;;;;;;16.48;30.66;99352.41;5561072;32;35192;-57
2022/04/08 10:53:32;;;;;;;2.20;0.77;;;;;;;16.48;34.36;99368.63;5549385;32;33899;-57
2022/04/08 10:56:34;;;;;;;1.52;0.80;;;;;;;16.34;28.08;99359.00;5548066;32;33661;-57
2022/04/08 10:59:37;;;;;;;3.30;0.98;;;;;;;16.14;29.33;99358.03;5549068;32;33403;-57
2022/04/08 11:02:43;;;;;;;5.70;1.00;;;;;;;16.08;28.73;99358.63;5553258;32;34259;-57
2022/04/08 11:05:46;;;;;;;2.35;1.08;;;;;;;16.17;29.62;99354.66;5559392;32;34448;-56
2022/04/08 11:08:49;;;;;;;4.53;1.30;;;;;;;16.38;30.19;99364.50;5551651;32;34368;-57
2022/04/08 11:11:53;;;;;;;4.85;1.02;;;;;;;16.33;28.83;99357.44;5561115;32;34393;-57
2022/04/08 11:14:57;;;;;;;6.18;1.02;;;;;;;16.31;29.36;99370.50;5568105;32;33683;-57
2022/04/08 11:18:00;;;;;;;4.10;0.80;;;;;;;16.29;29.58;99363.84;5568291;32;33594;-57
2022/04/08 11:21:03;;;;;;;5.93;1.05;;;;;;;16.34;30.69;99367.09;5568320;32;33801;-57
2022/04/08 11:24:07;;;;;;;2.65;0.90;;;;;;;16.30;32.33;99370.84;5568292;32;34410;-57
2022/04/08 11:27:10;;;;;;;3.47;1.00;;;;;;;16.26;31.52;99381.56;5567650;32;34330;-57
2022/04/08 11:30:13;;;;;;;6.87;0.85;;;;;;;16.18;31.73;99377.84;5568010;32;33778;-57
2022/04/08 11:33:17;;;;;;;4.57;0.90;;;;;;;16.23;32.16;99384.94;5568281;32;34305;-57
2022/04/08 11:36:23;;;;;;;3.12;1.00;;;;;;;16.12;31.51;99387.31;5568013;32;33611;-57
2022/04/08 11:39:27;;;;;;;2.85;1.00;;;;;;;16.14;31.22;99373.47;5568090;32;33713;-57
2022/04/08 11:42:29;;;;;;;4.93;1.00;;;;;;;16.20;31.69;99381.00;5564128;32;34369;-56
2022/04/08 11:45:31;;;;;;;2.05;0.90;;;;;;;16.15;36.86;99383.16;5564171;32;34227;-57
2022/04/08 11:48:38;;;;;;;4.80;1.00;;;;;;;16.16;38.51;99377.41;5567481;32;33733;-57
2022/04/08 11:51:40;;;;;;;5.22;1.23;;;;;;;16.14;32.81;99378.88;5567936;32;33684;-57
2022/04/08 11:54:42;;;;;;;4.20;1.10;;;;;;;16.28;34.98;99368.47;5567444;32;34453;-57
2022/04/08 11:58:16;;;;;;;3.12;1.02;;;;;;;16.36;33.86;99364.84;5567886;32;33701;-57
2022/04/08 12:01:32;;;;;;;0.80;0.62;;;;;;;16.47;34.10;99365.16;5567583;32;34289;-57
2022/04/08 12:04:40;;;;;;;1.75;1.00;;;;;;;16.46;33.90;99366.28;5567446;32;34336;-57
2022/04/08 12:07:44;;;;;;;3.33;1.35;;;;;;;16.50;35.00;99350.16;5569064;32;33605;-57
2022/04/08 12:10:53;;;;;;;1.77;1.20;;;;;;;16.65;34.22;99362.91;5570080;32;34437;-57
2022/04/08 12:13:58;;;;;;;3.12;1.30;;;;;;;16.75;33.53;99359.75;5570249;32;33257;-57
2022/04/08 12:17:01;;;;;;;4.97;1.33;;;;;;;16.74;34.30;99343.84;5559541;32;33677;-57
2022/04/08 12:20:05;;;;;;;3.87;1.27;;;;;;;16.85;35.50;99345.72;5560210;32;34361;-57
2022/04/08 12:23:10;;;;;;;2.78;0.95;;;;;;;16.90;34.61;99331.16;5563431;32;33749;-57
2022/04/08 12:26:12;;;;;;;4.20;1.37;;;;;;;17.01;35.79;99326.78;5570162;32;33726;-57
2022/04/08 12:29:15;;;;;;;6.70;1.10;;;;;;;16.95;34.81;99321.97;5568266;32;33674;-57
2022/04/08 12:32:18;;;;;;;4.82;1.20;;;;;;;16.94;34.68;99315.78;5548523;32;34019;-57
2022/04/08 12:35:20;;;;;;;2.47;1.12;;;;;;;16.94;35.50;99317.69;5568362;32;33686;-57
2022/04/08 12:38:23;;;;;;;5.70;1.37;;;;;;;17.02;36.36;99303.19;5570047;32;33416;-57
2022/04/08 12:41:25;;;;;;;7.53;1.45;;;;;;;17.07;36.75;99292.13;5570035;32;33683;-57
2022/04/08 12:44:28;;;;;;;1.65;0.90;;;;;;;17.09;35.96;99292.56;5569952;32;33743;-57
2022/04/08 12:47:30;;;;;;;2.67;1.02;;;;;;;17.14;36.04;99281.44;5569689;32;34310;-57
2022/04/08 12:50:37;;;;;;;3.35;1.17;;;;;;;17.32;37.09;99266.41;5569862;32;33771;-57
2022/04/08 12:53:42;;;;;;;7.60;1.40;;;;;;;17.45;37.44;99252.72;5570084;32;34000;-57
2022/04/08 12:56:44;;;;;;;3.15;1.12;;;;;;;17.42;36.20;99242.59;5570056;32;34295;-57
2022/04/08 12:59:47;;;;;;;2.85;1.05;;;;;;;17.45;37.11;99261.69;5570118;32;33631;-57
2022/04/08 13:02:49;;;;;;;2.58;0.90;;;;;;;17.31;35.82;99270.25;5569913;32;33658;-57
2022/04/08 13:05:51;;;;;;;3.95;1.15;;;;;;;17.39;36.36;99263.06;5570270;32;34605;-57
2022/04/08 13:08:53;;;;;;;3.50;1.42;;;;;;;17.35;36.60;99257.59;5569868;32;34333;-57
2022/04/08 13:11:56;;;;;;;5.68;1.33;;;;;;;17.25;36.17;99266.25;5570006;32;33662;-57
2022/04/08 13:14:58;;;;;;;2.37;0.98;;;;;;;17.33;38.12;99256.34;5569967;32;33649;-57
2022/04/08 13:18:01;;;;;;;2.35;1.10;;;;;;;17.58;41.28;99251.47;5569639;32;34464;-57
2022/04/08 13:21:03;;;;;;;3.58;1.48;;;;;;;17.74;37.56;99238.66;5569999;32;33649;-57
2022/04/08 13:24:09;;;;;;;3.08;1.10;;;;;;;17.64;37.39;99239.22;5570046;32;33639;-57
2022/04/08 13:27:11;;;;;;;4.13;1.30;;;;;;;17.58;37.72;99229.78;5569669;32;33609;-57
2022/04/08 13:30:14;;;;;;;4.22;1.10;;;;;;;17.56;37.39;99224.75;5569755;32;34464;-57
2022/04/08 13:33:16;;;;;;;3.95;1.30;;;;;;;17.59;37.74;99210.50;5569616;32;33672;-57
2022/04/08 13:36:19;;;;;;;4.10;1.40;;;;;;;17.50;37.23;99203.69;5569498;32;34534;-57
2022/04/08 13:39:21;;;;;;;5.55;1.25;;;;;;;17.45;37.27;99209.37;5569699;32;33615;-57
2022/04/08 13:42:26;;;;;;;4.90;1.48;;;;;;;17.45;38.26;99185.81;5569706;32;33695;-57
2022/04/08 13:45:28;;;;;;;4.18;1.23;;;;;;;17.44;37.89;99181.50;5569515;32;34354;-57
2022/04/08 13:48:30;;;;;;;1.98;1.27;;;;;;;17.54;41.64;99197.22;5569457;32;34372;-57
2022/04/08 13:51:32;;;;;;;3.40;1.30;;;;;;;17.50;37.57;99199.06;5569399;32;34389;-57
2022/04/08 13:54:35;;;;;;;6.07;1.40;;;;;;;17.44;37.59;99199.69;5569735;32;33694;-57
2022/04/08 13:57:37;;;;;;;3.45;1.85;;;;;;;17.49;39.86;99178.53;5569564;32;34342;-57
2022/04/08 14:00:39;;;;;;;5.78;1.92;;;;;;;17.54;37.86;99183.66;5569504;32;33675;-57
2022/04/08 14:03:42;;;;;;;2.87;1.15;;;;;;;17.58;37.53;99189.16;5569547;32;34427;-57
2022/04/08 14:06:47;;;;;;;3.15;1.48;;;;;;;17.58;37.93;99181.03;5569483;32;32122;-57
2022/04/08 14:09:50;;;;;;;4.18;1.50;;;;;;;17.60;38.13;99182.25;5569088;32;33625;-57
2022/04/08 14:12:52;;;;;;;6.25;1.60;;;;;;;17.49;37.82;99172.34;5569292;32;34367;-57
2022/04/08 14:15:54;;;;;;;6.57;1.95;;;;;;;17.52;39.44;99166.22;5569368;32;33665;-57
2022/04/08 14:18:56;;;;;;;6.68;1.50;;;;;;;17.55;38.94;99160.09;5569497;32;33726;-57
2022/04/08 14:21:59;;;;;;;7.47;2.08;;;;;;;17.54;40.32;99153.06;5569682;32;33956;-57
2022/04/08 14:25:03;;;;;;;8.32;1.98;;;;;;;17.59;38.52;99141.97;5569411;32;33704;-57
2022/04/08 14:28:26;;;;;;;5.90;2.40;;;;;;;17.55;39.68;99130.28;5568572;32;33725;-57
2022/04/08 14:31:29;;;;;;;5.97;2.40;;;;;;;17.55;40.18;99127.56;5569190;32;34258;-57
2022/04/08 14:34:31;;;;;;;9.38;2.87;;;;;;;17.55;40.50;99122.16;5569311;32;34336;-58
2022/04/08 14:37:33;;;;;;;6.80;3.40;;;;;;;17.50;39.98;99114.28;5569214;32;33792;-57
2022/04/08 14:40:36;;;;;;;6.22;3.62;;;;;;;17.44;40.05;99116.50;5569179;32;33792;-58
2022/04/08 14:43:38;;;;;;;5.40;3.33;;;;;;;17.35;40.31;99110.50;5569163;32;33689;-57
2022/04/08 14:46:42;;;;;;;6.30;2.83;;;;;;;17.35;41.48;99103.19;5568890;32;33928;-58
2022/04/08 14:49:44;;;;;;;7.75;3.65;;;;;;;17.38;42.39;99096.25;5568788;32;34424;-57
2022/04/08 14:52:47;;;;;;;8.15;3.55;;;;;;;17.34;42.73;99085.34;5568975;32;34434;-57
2022/04/08 14:55:49;;;;;;;6.25;3.47;;;;;;;17.60;42.86;99084.69;5569226;32;33759;-57
2022/04/08 14:58:52;;;;;;;8.73;4.20;;;;;;;17.69;44.75;99078.28;5568871;32;33783;-57
2022/04/08 15:01:55;;;;;;;6.87;3.95;;;;;;;17.61;43.40;99071.91;5569009;32;34381;-57
2022/04/08 15:04:57;;;;;;;13.23;4.20;;;;;;;17.61;42.97;99064.59;5568826;32;34301;-57
2022/04/08 15:07:59;;;;;;;10.73;5.43;;;;;;;17.56;43.66;99053.25;5568909;32;34367;-58
2022/04/08 15:11:03;;;;;;;9.63;4.82;;;;;;;17.50;43.91;99044.62;5568948;32;33780;-57
2022/04/08 15:14:05;;;;;;;10.63;5.57;;;;;;;17.43;44.67;99020.13;5568812;32;34245;-57
2022/04/08 15:17:07;;;;;;;13.52;6.00;;;;;;;17.53;45.03;99008.69;5568569;32;34428;-57
2022/04/08 15:20:10;;;;;;;12.15;5.55;;;;;;;17.53;45.42;98997.84;5568502;32;34289;-57
2022/04/08 15:23:12;;;;;;;10.95;6.45;;;;;;;17.49;46.83;98990.81;5568506;32;33816;-57
2022/04/08 15:26:14;;;;;;;11.20;6.85;;;;;;;17.50;46.98;98986.94;5568466;32;33742;-58
2022/04/08 15:29:17;;;;;;;11.80;7.43;;;;;;;17.32;47.38;98986.66;5567974;32;33200;-58
